createdAt,value
2018-12-23T00:01:11.614Z,16.93
2018-12-23T00:03:41.048Z,17.17
2018-12-23T00:06:10.598Z,16.13
2018-12-23T00:08:40.220Z,17.23
2018-12-23T00:11:09.815Z,16.80
2018-12-23T00:13:39.472Z,14.53
2018-12-23T00:16:08.998Z,15.73
2018-12-23T00:18:38.754Z,14.57
2018-12-23T00:21:08.257Z,14.77
2018-12-23T00:23:37.808Z,15.23
2018-12-23T00:26:07.382Z,15.67
2018-12-23T00:28:36.842Z,15.47
2018-12-23T00:31:06.511Z,14.07
2018-12-23T00:33:36.014Z,14.13
2018-12-23T00:36:05.356Z,15.03
2018-12-23T00:38:35.017Z,13.50
2018-12-23T00:41:04.518Z,13.40
2018-12-23T00:43:34.110Z,13.67
2018-12-23T00:46:03.738Z,13.40
2018-12-23T00:48:33.435Z,12.57
2018-12-23T00:51:03.066Z,13.17
2018-12-23T00:53:32.511Z,13.23
2018-12-23T00:56:02.121Z,12.43
2018-12-23T00:58:31.722Z,12.90
2018-12-23T01:01:01.434Z,13.70
2018-12-23T01:03:31.068Z,12.00
2018-12-23T01:06:00.531Z,11.67
2018-12-23T01:09:13.056Z,11.87
2018-12-23T01:11:55.060Z,11.90
2018-12-23T01:14:36.253Z,12.13
2018-12-23T01:17:17.866Z,11.77
2018-12-23T01:19:59.008Z,11.70
2018-12-23T01:22:40.224Z,12.73
2018-12-23T01:25:22.019Z,12.83
2018-12-23T01:28:04.177Z,12.00
2018-12-23T01:30:46.097Z,12.33
2018-12-23T01:33:29.160Z,12.07
2018-12-23T01:36:10.396Z,13.10
2018-12-23T01:38:52.213Z,13.00
2018-12-23T01:41:22.781Z,14.47
2018-12-23T01:49:55.249Z,12.13
2018-12-23T01:52:25.725Z,11.67
2018-12-23T02:00:58.531Z,12.63
2018-12-23T02:03:29.212Z,12.57
2018-12-23T02:08:54.537Z,14.37
2018-12-23T02:11:25.132Z,14.93
2018-12-23T02:14:26.274Z,15.23
2018-12-23T02:20:17.812Z,13.97
2018-12-23T02:26:08.948Z,13.90
2018-12-23T02:28:50.835Z,13.83
2018-12-23T02:31:33.801Z,13.40
2018-12-23T02:34:15.909Z,13.87
2018-12-23T02:36:46.668Z,12.70
2018-12-23T02:42:38.104Z,12.60
2018-12-23T02:45:19.917Z,12.87
2018-12-23T02:48:01.737Z,14.10
2018-12-23T02:50:43.673Z,13.47
2018-12-23T02:53:25.728Z,13.60
2018-12-23T02:56:07.689Z,13.57
2018-12-23T02:58:38.501Z,13.60
2018-12-23T03:04:29.664Z,13.90
2018-12-23T03:07:11.631Z,12.77
2018-12-23T03:09:43.368Z,14.10
2018-12-23T03:15:34.385Z,13.90
2018-12-23T03:18:16.335Z,12.40
2018-12-23T03:20:58.318Z,12.60
2018-12-23T03:23:40.235Z,12.63
2018-12-23T03:26:11.010Z,12.73
2018-12-23T03:28:41.583Z,11.90
2018-12-23T03:37:14.826Z,12.50
2018-12-23T03:39:56.527Z,11.70
2018-12-23T03:42:37.986Z,13.40
2018-12-23T03:45:19.095Z,11.53
2018-12-23T03:47:49.774Z,12.87
2018-12-23T03:53:39.486Z,11.80
2018-12-23T03:56:10.196Z,12.67
2018-12-23T03:58:51.819Z,12.80
2018-12-23T04:01:33.837Z,12.87
2018-12-23T04:04:15.720Z,12.17
2018-12-23T04:06:57.828Z,11.40
2018-12-23T04:09:39.822Z,12.80
2018-12-23T04:18:19.768Z,13.37
2018-12-23T04:26:57.753Z,13.33
2018-12-23T04:29:39.775Z,13.47
2018-12-23T04:32:21.501Z,13.97
2018-12-23T04:35:03.552Z,13.60
2018-12-23T04:37:34.337Z,14.17
2018-12-23T04:40:04.948Z,14.07
2018-12-23T04:48:42.080Z,15.23
2018-12-23T04:51:23.989Z,13.87
2018-12-23T04:54:05.076Z,14.80
2018-12-23T04:56:46.890Z,14.53
2018-12-23T04:59:28.283Z,14.77
2018-12-23T05:01:58.944Z,14.87
2018-12-23T05:04:59.918Z,13.90
2018-12-23T05:07:39.074Z,18.77
2018-12-23T05:10:20.268Z,17.37
2018-12-23T05:13:02.354Z,16.27
2018-12-23T05:15:44.532Z,16.00
2018-12-23T05:18:26.433Z,13.70
2018-12-23T05:21:08.593Z,15.67
2018-12-23T05:23:50.551Z,15.00
2018-12-23T05:26:32.586Z,16.07
2018-12-23T05:29:03.231Z,14.57
2018-12-23T05:37:35.924Z,15.33
2018-12-23T05:40:17.076Z,15.77
2018-12-23T05:42:58.629Z,15.77
2018-12-23T05:45:40.406Z,14.40
2018-12-23T05:48:21.612Z,15.37
2018-12-23T05:51:02.663Z,15.27
2018-12-23T05:53:43.919Z,15.00
2018-12-23T05:56:25.704Z,14.33
2018-12-23T05:58:56.502Z,15.63
2018-12-23T06:04:47.701Z,15.00
2018-12-23T06:07:29.297Z,14.50
2018-12-23T06:10:11.196Z,14.83
2018-12-23T06:12:52.820Z,14.23
2018-12-23T06:15:23.437Z,14.60
2018-12-23T06:18:12.595Z,13.60
2018-12-23T06:20:54.584Z,15.17
2018-12-23T06:23:35.870Z,15.83
2018-12-23T06:26:06.611Z,15.00
2018-12-23T06:31:58.181Z,14.53
2018-12-23T06:34:40.230Z,14.70
2018-12-23T06:37:10.997Z,15.93
2018-12-23T06:43:01.872Z,16.80
2018-12-23T06:45:32.566Z,20.20
2018-12-23T06:48:03.131Z,20.40
2018-12-23T06:56:43.857Z,20.20
2018-12-23T06:59:14.439Z,19.87
2018-12-23T07:07:47.704Z,25.43
2018-12-23T07:10:18.288Z,28.00
2018-12-23T07:16:19.191Z,27.53
2018-12-23T07:22:00.145Z,26.77
2018-12-23T07:24:41.979Z,26.00
2018-12-23T07:27:12.665Z,25.73
2018-12-23T07:32:52.882Z,25.33
2018-12-23T07:38:43.897Z,25.50
2018-12-23T07:41:25.903Z,25.87
2018-12-23T07:43:56.664Z,24.67
2018-12-23T07:49:36.818Z,24.50
2018-12-23T07:55:27.737Z,23.83
2018-12-23T07:58:09.545Z,23.37
2018-12-23T08:00:40.289Z,23.87
2018-12-23T08:03:41.196Z,23.20
2018-12-23T08:06:13.624Z,23.67
2018-12-23T08:08:55.447Z,23.80
2018-12-23T08:11:26.152Z,23.47
2018-12-23T08:14:26.951Z,23.13
2018-12-23T08:16:58.845Z,22.67
2018-12-23T08:19:40.324Z,21.57
2018-12-23T08:22:10.965Z,22.07
2018-12-23T08:28:01.899Z,21.90
2018-12-23T08:30:43.051Z,22.60
2018-12-23T08:33:13.712Z,23.00
2018-12-23T08:39:05.351Z,20.00
2018-12-23T08:41:46.576Z,20.33
2018-12-23T08:44:27.903Z,20.60
2018-12-23T08:47:09.028Z,19.80
2018-12-23T08:49:50.912Z,20.83
2018-12-23T08:52:32.911Z,19.27
2018-12-23T08:55:03.572Z,20.93
2018-12-23T09:00:54.381Z,20.47
2018-12-23T09:03:35.818Z,18.37
2018-12-23T09:06:06.556Z,19.57
2018-12-23T09:08:47.845Z,18.43
2018-12-23T09:11:29.764Z,20.77
2018-12-23T09:14:11.749Z,19.50
2018-12-23T09:16:53.618Z,20.67
2018-12-23T09:19:35.552Z,18.73
2018-12-23T09:22:19.761Z,20.17
2018-12-23T09:25:01.642Z,19.60
2018-12-23T09:27:43.408Z,18.90
2018-12-23T09:30:24.593Z,19.40
2018-12-23T09:33:05.830Z,19.67
2018-12-23T09:35:36.496Z,20.23
2018-12-23T09:43:57.618Z,20.20
2018-12-23T09:49:48.653Z,18.47
2018-12-23T09:52:30.637Z,18.70
2018-12-23T09:55:01.292Z,18.87
2018-12-23T09:58:04.636Z,18.70
2018-12-23T10:00:33.654Z,20.43
2018-12-23T10:03:15.532Z,20.37
2018-12-23T10:05:46.295Z,18.90
2018-12-23T10:11:37.904Z,19.27
2018-12-23T10:14:19.120Z,19.07
2018-12-23T10:17:00.398Z,19.70
2018-12-23T10:19:42.313Z,21.17
2018-12-23T10:22:23.786Z,21.13
2018-12-23T10:25:05.562Z,17.67
2018-12-23T10:27:36.244Z,18.00
2018-12-23T10:33:27.203Z,19.40
2018-12-23T10:36:08.874Z,19.27
2018-12-23T10:38:39.736Z,20.37
2018-12-23T10:44:30.805Z,20.07
2018-12-23T10:47:12.588Z,19.83
2018-12-23T10:49:53.804Z,20.03
2018-12-23T10:52:35.037Z,20.00
2018-12-23T10:55:16.493Z,20.83
2018-12-23T10:57:58.425Z,19.93
2018-12-23T11:00:29.118Z,18.63
2018-12-23T11:06:09.324Z,20.13
2018-12-23T11:08:39.856Z,19.10
2018-12-23T11:17:21.437Z,18.33
2018-12-23T11:20:03.029Z,18.83
2018-12-23T11:22:45.053Z,18.40
2018-12-23T11:25:27.108Z,23.30
2018-12-23T11:28:09.052Z,18.43
2018-12-23T11:30:50.136Z,18.40
2018-12-23T11:33:31.869Z,18.47
2018-12-23T11:36:13.073Z,17.87
2018-12-23T11:38:54.959Z,17.40
2018-12-23T11:41:36.993Z,17.73
2018-12-23T11:44:07.748Z,18.10
2018-12-23T11:49:58.973Z,17.63
2018-12-23T11:52:40.877Z,17.07
2018-12-23T11:55:22.824Z,16.87
2018-12-23T11:58:04.344Z,17.30
2018-12-23T12:00:46.229Z,18.40
2018-12-23T12:03:28.176Z,17.60
2018-12-23T12:06:09.510Z,17.70
2018-12-23T12:08:50.647Z,18.70
2018-12-23T12:11:32.021Z,19.03
2018-12-23T12:14:14.000Z,17.57
2018-12-23T12:16:55.277Z,17.00
2018-12-23T12:19:37.201Z,16.70
2018-12-23T12:22:18.420Z,16.60
2018-12-23T12:24:59.687Z,17.53
2018-12-23T12:27:41.463Z,17.47
2018-12-23T12:30:23.231Z,18.13
2018-12-23T12:33:04.644Z,17.43
2018-12-23T12:35:46.628Z,18.23
2018-12-23T12:38:28.003Z,16.00
2018-12-23T12:41:09.759Z,17.57
2018-12-23T12:43:51.007Z,16.73
2018-12-23T12:46:32.593Z,17.63
2018-12-23T12:49:14.637Z,16.80
2018-12-23T12:51:56.532Z,17.13
2018-12-23T12:54:38.426Z,17.03
2018-12-23T12:57:20.332Z,16.10
2018-12-23T13:00:02.280Z,16.20
2018-12-23T13:02:32.894Z,15.83
2018-12-23T13:10:59.595Z,15.20
2018-12-23T13:16:50.817Z,15.93
2018-12-23T13:19:32.844Z,16.43
2018-12-23T13:22:14.149Z,17.00
2018-12-23T13:24:55.317Z,17.70
2018-12-23T13:27:36.491Z,17.70
2018-12-23T13:30:17.641Z,17.57
2018-12-23T13:32:58.802Z,20.30
2018-12-23T13:35:40.743Z,18.70
2018-12-23T13:38:22.340Z,19.63
2018-12-23T13:41:04.440Z,19.77
2018-12-23T13:43:46.473Z,21.40
2018-12-23T13:46:28.477Z,20.93
2018-12-23T13:49:10.577Z,20.90
2018-12-23T13:52:05.109Z,20.53
2018-12-23T13:54:46.898Z,19.70
2018-12-23T13:57:28.358Z,20.97
2018-12-23T14:00:10.278Z,20.10
2018-12-23T14:02:52.061Z,24.70
2018-12-23T14:06:14.312Z,25.23
2018-12-23T14:09:18.629Z,26.37
2018-12-23T14:15:09.950Z,29.77
2018-12-23T14:17:51.791Z,29.37
2018-12-23T14:20:32.918Z,28.53
2018-12-23T14:23:14.025Z,29.43
2018-12-23T14:25:44.843Z,25.77
2018-12-23T14:28:15.472Z,22.70
2018-12-23T14:30:46.036Z,24.40
2018-12-23T14:39:12.617Z,24.30
2018-12-23T14:45:07.200Z,20.53
2018-12-23T14:47:49.332Z,19.13
2018-12-23T14:50:30.593Z,19.03
2018-12-23T14:53:12.361Z,19.47
2018-12-23T14:55:53.783Z,19.23
2018-12-23T14:58:24.528Z,19.27
2018-12-23T15:03:50.817Z,18.10
2018-12-23T15:06:21.515Z,18.87
2018-12-23T15:11:59.217Z,18.97
2018-12-23T15:14:29.859Z,17.93
2018-12-23T15:17:00.581Z,19.53
2018-12-23T15:25:41.874Z,20.43
2018-12-23T15:28:12.712Z,20.67
2018-12-23T15:33:39.231Z,26.97
2018-12-23T15:42:26.725Z,27.60
2018-12-23T15:44:57.384Z,27.13
2018-12-23T15:50:35.389Z,25.63
2018-12-23T15:53:17.226Z,26.07
2018-12-23T15:55:59.158Z,27.97
2018-12-23T15:58:40.837Z,26.90
2018-12-23T16:01:21.985Z,28.77
2018-12-23T16:03:52.596Z,29.33
2018-12-23T16:06:23.256Z,29.70
2018-12-23T16:15:00.676Z,26.13
2018-12-23T16:17:31.414Z,27.60
2018-12-23T16:26:03.105Z,26.70
2018-12-23T16:34:36.480Z,23.77
2018-12-23T16:37:07.165Z,23.17
2018-12-23T16:39:37.799Z,24.23
2018-12-23T16:42:08.433Z,23.57
2018-12-23T16:44:57.695Z,25.57
2018-12-23T16:47:28.430Z,27.30
2018-12-23T16:53:19.932Z,25.87
2018-12-23T16:56:01.816Z,24.73
2018-12-23T16:58:32.543Z,25.63
2018-12-23T17:01:36.021Z,25.33
2018-12-23T17:04:04.620Z,24.47
2018-12-23T17:06:46.354Z,25.53
2018-12-23T17:09:17.541Z,24.67
2018-12-23T17:14:57.742Z,22.90
2018-12-23T17:17:46.936Z,24.07
2018-12-23T17:20:28.289Z,23.63
2018-12-23T17:23:09.459Z,23.23
2018-12-23T17:25:50.554Z,22.70
2018-12-23T17:28:31.714Z,24.23
2018-12-23T17:31:13.810Z,25.30
2018-12-23T17:33:54.848Z,21.93
2018-12-23T17:36:36.731Z,23.77
2018-12-23T17:39:18.478Z,23.00
2018-12-23T17:42:01.404Z,24.17
2018-12-23T17:44:42.539Z,21.97
2018-12-23T17:47:24.548Z,23.23
2018-12-23T17:50:06.421Z,23.97
2018-12-23T17:52:48.456Z,24.43
2018-12-23T17:55:30.592Z,21.20
2018-12-23T17:58:12.504Z,21.17
2018-12-23T18:00:54.488Z,20.30
2018-12-23T18:03:36.296Z,21.10
2018-12-23T18:06:17.812Z,19.07
2018-12-23T18:08:59.020Z,18.73
2018-12-23T18:11:41.153Z,18.20
2018-12-23T18:14:23.129Z,17.90
2018-12-23T18:17:05.101Z,19.93
2018-12-23T18:19:46.825Z,18.40
2018-12-23T18:22:28.848Z,15.57
2018-12-23T18:25:10.160Z,16.67
2018-12-23T18:27:52.014Z,16.80
2018-12-23T18:30:22.714Z,14.30
2018-12-23T18:36:13.604Z,15.77
2018-12-23T18:38:44.252Z,15.77
2018-12-23T18:41:47.457Z,14.33
2018-12-23T18:47:26.851Z,15.90
2018-12-23T18:50:08.773Z,14.67
2018-12-23T18:52:50.663Z,18.10
2018-12-23T18:55:32.542Z,21.80
2018-12-23T18:58:14.318Z,27.27
2018-12-23T19:01:07.563Z,34.20
2018-12-23T19:06:48.765Z,34.73
2018-12-23T19:09:30.044Z,31.73
2018-12-23T19:12:11.920Z,29.83
2018-12-23T19:14:53.525Z,29.00
2018-12-23T19:17:36.588Z,28.57
2018-12-23T19:20:17.792Z,26.73
2018-12-23T19:23:13.453Z,26.43
2018-12-23T19:26:21.476Z,25.13
2018-12-23T19:29:02.945Z,25.40
2018-12-23T19:31:43.995Z,23.27
2018-12-23T19:34:33.728Z,21.47
2018-12-23T19:37:10.068Z,22.23
2018-12-23T19:39:51.912Z,20.07
2018-12-23T19:42:33.876Z,19.43
2018-12-23T19:45:16.055Z,20.50
2018-12-23T19:47:57.684Z,19.97
2018-12-23T19:50:38.887Z,21.23
2018-12-23T19:53:20.837Z,24.63
2018-12-23T19:56:02.573Z,22.90
2018-12-23T19:58:44.610Z,30.40
2018-12-23T20:02:01.904Z,25.40
2018-12-23T20:05:09.833Z,28.97
2018-12-23T20:07:51.588Z,27.47
2018-12-23T20:14:27.992Z,21.60
2018-12-23T20:17:09.161Z,24.23
2018-12-23T20:19:51.097Z,23.67
2018-12-23T20:22:43.919Z,22.70
2018-12-23T20:25:51.873Z,24.20
2018-12-23T20:28:59.824Z,19.33
2018-12-23T20:31:41.705Z,19.90
2018-12-23T20:34:46.090Z,18.43
2018-12-23T20:37:12.009Z,16.80
2018-12-23T20:39:53.203Z,15.13
2018-12-23T20:42:35.014Z,17.30
2018-12-23T20:47:59.600Z,14.97
2018-12-23T20:50:41.760Z,17.50
2018-12-23T20:53:23.518Z,15.13
2018-12-23T20:56:05.966Z,15.53
2018-12-23T20:58:52.681Z,13.40
2018-12-23T21:01:34.281Z,14.23
2018-12-23T21:04:16.341Z,16.40
2018-12-23T21:06:57.702Z,15.43
2018-12-23T21:09:40.313Z,15.63
2018-12-23T21:12:22.228Z,16.87
2018-12-23T21:15:04.204Z,22.30
2018-12-23T21:17:46.201Z,19.17
2018-12-23T21:20:28.332Z,16.87
2018-12-23T21:23:09.501Z,30.47
2018-12-23T21:25:51.686Z,16.73
2018-12-23T21:28:32.879Z,20.17
2018-12-23T21:31:14.774Z,20.10
2018-12-23T21:34:31.684Z,17.77
2018-12-23T21:37:39.679Z,15.30
2018-12-23T21:40:47.621Z,16.73
2018-12-23T21:43:28.872Z,19.37
2018-12-23T21:46:09.956Z,18.27
2018-12-23T21:48:51.126Z,20.30
2018-12-23T21:51:32.952Z,20.30
2018-12-23T21:55:03.013Z,17.83
2018-12-23T22:00:54.600Z,22.10
2018-12-23T22:03:36.575Z,19.67
2018-12-23T22:06:17.707Z,16.27
2018-12-23T22:08:58.815Z,16.80
2018-12-23T22:11:40.581Z,17.10
2018-12-23T22:14:22.604Z,17.30
2018-12-23T22:16:53.172Z,21.20
2018-12-23T22:22:43.931Z,18.40
2018-12-23T22:25:25.424Z,17.00
2018-12-23T22:28:07.008Z,17.60
2018-12-23T22:30:48.956Z,16.97
2018-12-23T22:33:30.293Z,15.77
2018-12-23T22:36:00.876Z,15.67
2018-12-23T22:39:02.136Z,15.77
2018-12-23T22:44:42.941Z,15.63
2018-12-23T22:47:24.913Z,14.77
2018-12-23T22:50:07.789Z,14.77
2018-12-23T22:52:48.888Z,15.03
2018-12-23T22:55:30.592Z,15.63
2018-12-23T22:58:11.860Z,17.00
2018-12-23T23:00:53.016Z,15.83
2018-12-23T23:03:34.920Z,15.37
2018-12-23T23:06:16.085Z,16.60
2018-12-23T23:08:46.657Z,15.37
2018-12-23T23:17:28.173Z,16.10
2018-12-23T23:20:10.211Z,15.23
2018-12-23T23:22:52.296Z,14.57
2018-12-23T23:25:34.152Z,14.00
2018-12-23T23:28:15.453Z,14.07
2018-12-23T23:30:57.392Z,14.10
2018-12-23T23:33:39.056Z,13.33
2018-12-23T23:36:09.648Z,13.87
2018-12-23T23:38:40.182Z,12.63
2018-12-23T23:47:06.304Z,12.97
2018-12-23T23:52:57.440Z,13.40
2018-12-23T23:55:39.128Z,12.90
2018-12-23T23:58:09.766Z,12.77
